createdAt,value
2018-05-11T00:01:25.750Z,70.40
2018-05-11T00:02:25.811Z,70.40
2018-05-11T00:04:18.804Z,70.59
2018-05-11T00:05:18.856Z,70.40
2018-05-11T00:07:11.865Z,70.59
2018-05-11T00:08:11.898Z,70.50
2018-05-11T00:10:04.883Z,70.78
2018-05-11T00:11:04.942Z,70.50
2018-05-11T00:12:57.936Z,69.83
2018-05-11T00:13:57.990Z,69.45
2018-05-11T00:15:50.971Z,69.83
2018-05-11T00:16:51.030Z,69.89
2018-05-11T00:18:44.028Z,68.88
2018-05-11T00:19:44.081Z,69.04
2018-05-11T00:21:37.064Z,69.07
2018-05-11T00:22:37.205Z,68.98
2018-05-11T00:24:30.117Z,69.99
2018-05-11T00:25:30.168Z,70.08
2018-05-11T00:27:23.179Z,69.79
2018-05-11T00:28:23.214Z,69.89
2018-05-11T00:30:16.197Z,69.79
2018-05-11T00:31:16.256Z,69.60
2018-05-11T00:33:09.251Z,69.70
2018-05-11T00:34:09.300Z,69.32
2018-05-11T00:36:02.282Z,69.60
2018-05-11T00:37:02.344Z,68.84
2018-05-11T00:38:55.340Z,69.60
2018-05-11T00:39:55.393Z,69.32
2018-05-11T00:41:48.375Z,68.84
2018-05-11T00:42:48.436Z,69.04
2018-05-11T00:44:41.428Z,69.23
2018-05-11T00:45:41.480Z,69.32
2018-05-11T00:47:34.473Z,68.94
2018-05-11T00:48:34.523Z,69.99
2018-05-11T00:50:27.505Z,69.70
2018-05-11T00:51:27.567Z,69.79
2018-05-11T00:53:20.563Z,69.00
2018-05-11T00:54:20.613Z,69.19
2018-05-11T00:56:13.596Z,67.86
2018-05-11T00:57:13.657Z,68.81
2018-05-11T00:59:06.658Z,68.90
2018-05-11T01:00:06.701Z,68.52
2018-05-11T01:01:59.685Z,69.00
2018-05-11T01:02:59.749Z,68.62
2018-05-11T01:04:52.740Z,68.81
2018-05-11T01:05:52.789Z,68.52
2018-05-11T01:07:45.803Z,68.62
2018-05-11T01:08:45.837Z,68.90
2018-05-11T01:10:38.816Z,69.19
2018-05-11T01:11:38.874Z,69.57
2018-05-11T01:13:31.867Z,69.85
2018-05-11T01:14:31.920Z,69.76
2018-05-11T01:16:24.905Z,69.19
2018-05-11T01:17:24.964Z,69.10
2018-05-11T01:19:17.956Z,68.52
2018-05-11T01:20:18.007Z,69.29
2018-05-11T01:22:10.991Z,69.10
2018-05-11T01:23:11.054Z,69.10
2018-05-11T01:25:04.042Z,68.24
2018-05-11T01:26:04.092Z,67.95
2018-05-11T01:27:57.094Z,68.81
2018-05-11T01:28:57.137Z,68.71
2018-05-11T01:30:50.127Z,69.19
2018-05-11T01:31:50.183Z,69.10
2018-05-11T01:33:43.181Z,68.71
2018-05-11T01:34:43.231Z,69.00
2018-05-11T01:36:36.219Z,68.33
2018-05-11T01:37:36.275Z,67.76
2018-05-11T01:39:29.268Z,68.52
2018-05-11T01:40:29.320Z,68.24
2018-05-11T01:42:22.811Z,68.71
2018-05-11T01:43:22.870Z,69.10
2018-05-11T01:45:15.870Z,69.00
2018-05-11T01:46:15.918Z,68.62
2018-05-11T01:48:08.922Z,68.33
2018-05-11T01:49:08.957Z,68.81
2018-05-11T01:51:01.941Z,69.00
2018-05-11T01:52:02.000Z,68.24
2018-05-11T01:53:54.990Z,69.19
2018-05-11T01:54:55.042Z,69.10
2018-05-11T01:56:50.553Z,68.24
2018-05-11T01:57:48.085Z,68.24
2018-05-11T01:59:41.085Z,67.95
2018-05-11T02:00:41.130Z,68.05
2018-05-11T02:02:34.113Z,67.19
2018-05-11T02:03:34.173Z,66.91
2018-05-11T02:05:27.166Z,67.38
2018-05-11T02:06:27.215Z,66.62
2018-05-11T02:08:20.217Z,67.10
2018-05-11T02:09:20.257Z,66.91
2018-05-11T02:11:13.241Z,66.91
2018-05-11T02:12:13.301Z,67.47
2018-05-11T02:14:06.294Z,67.00
2018-05-11T02:15:06.346Z,67.29
2018-05-11T02:16:59.329Z,66.24
2018-05-11T02:17:59.389Z,66.91
2018-05-11T02:19:52.382Z,66.72
2018-05-11T02:20:52.430Z,66.91
2018-05-11T02:22:45.418Z,66.62
2018-05-11T02:23:45.478Z,66.05
2018-05-11T02:25:38.466Z,66.33
2018-05-11T02:26:38.517Z,66.91
2018-05-11T02:28:31.514Z,66.53
2018-05-11T02:29:31.562Z,66.91
2018-05-11T02:31:24.543Z,66.62
2018-05-11T02:32:24.604Z,66.43
2018-05-11T02:34:17.598Z,66.62
2018-05-11T02:35:17.651Z,66.87
2018-05-11T02:37:10.634Z,66.72
2018-05-11T02:38:10.691Z,66.20
2018-05-11T02:40:03.684Z,67.00
2018-05-11T02:41:03.735Z,67.47
2018-05-11T02:42:57.219Z,67.67
2018-05-11T02:43:57.283Z,66.91
2018-05-11T02:45:50.275Z,67.00
2018-05-11T02:46:50.329Z,67.10
2018-05-11T02:48:43.334Z,66.72
2018-05-11T02:49:43.374Z,66.24
2018-05-11T02:51:36.354Z,66.14
2018-05-11T02:52:36.415Z,65.67
2018-05-11T02:54:29.409Z,65.48
2018-05-11T02:55:29.461Z,66.72
2018-05-11T02:57:22.448Z,66.14
2018-05-11T02:58:22.508Z,66.24
2018-05-11T03:00:15.511Z,66.05
2018-05-11T03:01:15.557Z,66.53
2018-05-11T03:03:08.544Z,66.14
2018-05-11T03:04:08.603Z,66.81
2018-05-11T03:06:01.617Z,67.10
2018-05-11T03:07:01.669Z,67.29
2018-05-11T03:08:54.718Z,66.59
2018-05-11T03:09:54.711Z,66.68
2018-05-11T03:11:47.691Z,66.11
2018-05-11T03:12:47.752Z,66.30
2018-05-11T03:14:40.743Z,66.11
2018-05-11T03:15:40.795Z,66.68
2018-05-11T03:17:33.780Z,66.59
2018-05-11T03:18:33.908Z,66.59
2018-05-11T03:20:26.833Z,66.78
2018-05-11T03:21:26.885Z,66.20
2018-05-11T03:23:19.875Z,66.30
2018-05-11T03:24:19.935Z,66.11
2018-05-11T03:26:12.929Z,65.45
2018-05-11T03:27:12.975Z,65.06
2018-05-11T03:29:05.988Z,65.16
2018-05-11T03:30:06.024Z,65.54
2018-05-11T03:31:59.005Z,66.02
2018-05-11T03:32:59.065Z,64.97
2018-05-11T03:34:52.059Z,65.06
2018-05-11T03:35:52.108Z,64.87
2018-05-11T03:37:45.090Z,64.78
2018-05-11T03:38:45.152Z,65.06
2018-05-11T03:40:38.144Z,64.59
2018-05-11T03:41:38.193Z,64.53
2018-05-11T03:43:31.177Z,64.05
2018-05-11T03:44:31.238Z,64.90
2018-05-11T03:46:24.228Z,64.62
2018-05-11T03:47:24.278Z,64.05
2018-05-11T03:49:17.277Z,65.29
2018-05-11T03:50:17.320Z,65.67
2018-05-11T03:52:10.305Z,65.77
2018-05-11T03:53:10.364Z,65.67
2018-05-11T03:55:03.356Z,65.38
2018-05-11T03:56:03.408Z,65.48
2018-05-11T03:57:56.391Z,65.70
2018-05-11T03:58:56.450Z,65.61
2018-05-11T04:00:49.443Z,65.51
2018-05-11T04:01:49.499Z,65.32
2018-05-11T04:03:42.494Z,65.61
2018-05-11T04:04:42.555Z,65.51
2018-05-11T04:06:35.634Z,66.08
2018-05-11T04:07:35.606Z,65.80
2018-05-11T04:09:28.620Z,65.99
2018-05-11T04:10:28.650Z,66.08
2018-05-11T04:12:21.635Z,66.08
2018-05-11T04:13:21.696Z,66.08
2018-05-11T04:15:14.694Z,66.08
2018-05-11T04:16:14.747Z,65.32
2018-05-11T04:18:07.735Z,65.32
2018-05-11T04:19:07.793Z,65.61
2018-05-11T04:21:00.786Z,65.42
2018-05-11T04:22:00.838Z,65.23
2018-05-11T04:23:53.828Z,65.51
2018-05-11T04:24:53.906Z,65.32
2018-05-11T04:26:46.885Z,64.75
2018-05-11T04:27:46.932Z,64.47
2018-05-11T04:29:39.945Z,65.03
2018-05-11T04:30:39.981Z,65.51
2018-05-11T04:32:32.960Z,65.42
2018-05-11T04:33:33.023Z,65.42
2018-05-11T04:35:26.013Z,65.51
2018-05-11T04:36:26.064Z,65.42
2018-05-11T04:38:19.057Z,65.36
2018-05-11T04:39:19.115Z,65.13
2018-05-11T04:41:12.113Z,65.26
2018-05-11T04:42:12.160Z,65.13
2018-05-11T04:44:05.145Z,64.78
2018-05-11T04:45:05.205Z,65.36
2018-05-11T04:46:58.203Z,64.56
2018-05-11T04:47:58.269Z,64.75
2018-05-11T04:49:51.249Z,64.59
2018-05-11T04:50:51.295Z,64.31
2018-05-11T04:52:44.282Z,65.16
2018-05-11T04:53:44.368Z,65.36
2018-05-11T04:55:37.333Z,64.31
2018-05-11T04:56:37.387Z,64.31
2018-05-11T04:58:30.375Z,64.28
2018-05-11T04:59:30.436Z,63.92
2018-05-11T05:01:23.424Z,63.13
2018-05-11T05:02:23.480Z,62.56
2018-05-11T05:04:16.464Z,63.51
2018-05-11T05:05:16.523Z,63.51
2018-05-11T05:07:09.516Z,63.45
2018-05-11T05:08:09.567Z,63.83
2018-05-11T05:10:02.577Z,64.21
2018-05-11T05:11:02.620Z,64.31
2018-05-11T05:12:56.108Z,65.48
2018-05-11T05:13:56.167Z,64.43
2018-05-11T05:15:49.162Z,65.67
2018-05-11T05:16:49.211Z,65.29
2018-05-11T05:18:42.196Z,65.29
2018-05-11T05:19:42.256Z,65.00
2018-05-11T05:21:35.247Z,65.58
2018-05-11T05:22:35.300Z,66.24
2018-05-11T05:24:28.288Z,65.33
2018-05-11T05:25:28.350Z,65.80
2018-05-11T05:27:21.366Z,65.52
2018-05-11T05:28:21.396Z,66.38
2018-05-11T05:30:14.388Z,65.80
2018-05-11T05:31:14.438Z,65.42
2018-05-11T05:33:07.439Z,65.70
2018-05-11T05:34:07.488Z,65.42
2018-05-11T05:36:00.480Z,65.42
2018-05-11T05:37:00.535Z,64.94
2018-05-11T05:38:53.517Z,65.04
2018-05-11T05:39:53.578Z,65.23
2018-05-11T05:41:46.571Z,64.56
2018-05-11T05:42:46.624Z,64.65
2018-05-11T05:44:39.622Z,64.65
2018-05-11T05:45:39.684Z,65.36
2018-05-11T05:47:32.676Z,66.22
2018-05-11T05:48:32.730Z,66.88
2018-05-11T05:50:25.743Z,67.30
2018-05-11T05:51:25.782Z,67.77
2018-05-11T05:53:18.769Z,68.16
2018-05-11T05:54:18.829Z,67.87
2018-05-11T05:56:11.829Z,68.19
2018-05-11T05:57:11.877Z,67.43
2018-05-11T05:59:04.864Z,66.44
2018-05-11T06:00:04.924Z,65.48
2018-05-11T06:01:57.922Z,66.06
2018-05-11T06:02:57.973Z,66.92
2018-05-11T06:04:50.967Z,66.72
2018-05-11T06:05:51.023Z,67.11
2018-05-11T06:07:44.019Z,66.63
2018-05-11T06:08:44.073Z,65.48
2018-05-11T06:10:37.061Z,65.48
2018-05-11T06:11:37.122Z,65.67
2018-05-11T06:13:30.118Z,66.85
2018-05-11T06:14:30.169Z,67.05
2018-05-11T06:16:23.234Z,65.48
2018-05-11T06:17:23.221Z,64.62
2018-05-11T06:19:16.221Z,65.30
2018-05-11T06:20:16.272Z,66.63
2018-05-11T06:22:09.309Z,67.21
2018-05-11T06:23:09.410Z,66.72
2018-05-11T06:25:02.363Z,65.87
2018-05-11T06:26:02.419Z,66.25
2018-05-11T06:27:55.408Z,67.24
2018-05-11T06:28:55.456Z,67.14
2018-05-11T06:30:48.445Z,67.52
2018-05-11T06:31:48.506Z,67.62
2018-05-11T06:33:41.510Z,66.56
2018-05-11T06:34:41.562Z,67.33
2018-05-11T06:36:34.546Z,66.19
2018-05-11T06:37:34.611Z,67.71
2018-05-11T06:39:27.606Z,65.42
2018-05-11T06:40:27.822Z,65.23
2018-05-11T06:42:20.647Z,66.95
2018-05-11T06:43:20.775Z,67.05
2018-05-11T06:45:13.702Z,68.19
2018-05-11T06:46:13.755Z,67.65
2018-05-11T06:48:06.763Z,66.85
2018-05-11T06:49:06.817Z,67.14
2018-05-11T06:50:59.809Z,65.52
2018-05-11T06:51:59.872Z,67.14
2018-05-11T06:53:52.879Z,68.90
2018-05-11T06:54:52.939Z,66.22
2018-05-11T06:56:45.919Z,70.04
2018-05-11T06:57:45.981Z,66.85
2018-05-11T06:59:38.989Z,67.62
2018-05-11T07:00:39.041Z,67.14
2018-05-11T07:02:32.036Z,66.28
2018-05-11T07:03:32.100Z,67.91
2018-05-11T07:05:25.104Z,68.48
2018-05-11T07:06:25.157Z,68.00
2018-05-11T07:08:18.163Z,68.80
2018-05-11T07:09:18.221Z,69.18
2018-05-11T07:11:11.713Z,68.99
2018-05-11T07:12:11.771Z,67.75
2018-05-11T07:14:04.771Z,67.36
2018-05-11T07:15:04.823Z,67.46
2018-05-11T07:16:57.810Z,68.61
2018-05-11T07:17:57.874Z,68.04
2018-05-11T07:19:50.898Z,67.46
2018-05-11T07:20:50.952Z,68.13
2018-05-11T07:22:43.943Z,68.32
2018-05-11T07:23:44.005Z,68.13
2018-05-11T07:25:37.097Z,69.66
2018-05-11T07:26:37.058Z,69.98
2018-05-11T07:28:30.054Z,71.26
2018-05-11T07:29:30.109Z,71.45
2018-05-11T07:31:23.115Z,70.59
2018-05-11T07:32:23.167Z,72.02
2018-05-11T07:34:16.165Z,72.60
2018-05-11T07:35:16.218Z,71.07
2018-05-11T07:37:09.207Z,71.70
2018-05-11T07:38:09.270Z,70.78
2018-05-11T07:40:02.273Z,71.70
2018-05-11T07:41:02.322Z,71.70
2018-05-11T07:42:55.318Z,70.59
2018-05-11T07:43:55.382Z,72.60
2018-05-11T07:45:48.384Z,73.02
2018-05-11T07:46:48.436Z,73.88
2018-05-11T07:48:41.425Z,74.36
2018-05-11T07:49:41.488Z,75.31
2018-05-11T07:51:34.492Z,73.88
2018-05-11T07:52:34.542Z,73.75
2018-05-11T07:54:27.545Z,71.73
2018-05-11T07:55:27.602Z,72.54
2018-05-11T07:57:20.590Z,74.11
2018-05-11T07:58:20.658Z,76.50
2018-05-11T08:00:13.655Z,75.54
2018-05-11T08:01:13.713Z,74.26
2018-05-11T08:03:06.699Z,72.22
2018-05-11T08:04:06.764Z,72.12
2018-05-11T08:05:59.764Z,72.41
2018-05-11T08:06:59.823Z,72.22
2018-05-11T08:08:52.809Z,72.69
2018-05-11T08:09:52.869Z,71.51
2018-05-11T08:11:46.385Z,72.88
2018-05-11T08:12:46.430Z,72.50
2018-05-11T08:14:39.435Z,75.27
2018-05-11T08:15:39.486Z,74.51
2018-05-11T08:17:32.475Z,74.93
2018-05-11T08:18:32.539Z,75.60
2018-05-11T08:20:25.541Z,75.93
2018-05-11T08:21:25.601Z,76.73
2018-05-11T08:23:18.595Z,77.82
2018-05-11T08:24:18.661Z,79.01
2018-05-11T08:26:11.655Z,82.40
2018-05-11T08:27:11.710Z,82.08
2018-05-11T08:29:04.713Z,64.08
2018-05-11T08:30:04.769Z,57.34
2018-05-11T08:31:57.779Z,51.25
2018-05-11T08:32:57.833Z,51.86
2018-05-11T08:34:50.838Z,55.78
2018-05-11T08:35:50.999Z,58.97
2018-05-11T08:37:43.918Z,71.20
2018-05-11T08:38:43.977Z,72.71
2018-05-11T08:40:36.990Z,77.25
2018-05-11T08:41:37.050Z,80.57
2018-05-11T08:43:30.059Z,82.49
2018-05-11T08:44:30.141Z,82.93
2018-05-11T08:46:23.153Z,83.42
2018-05-11T08:47:23.197Z,83.67
2018-05-11T08:49:16.199Z,85.25
2018-05-11T08:50:16.268Z,85.92
2018-05-11T08:52:09.285Z,84.25
2018-05-11T08:53:09.337Z,84.39
2018-05-11T08:55:02.337Z,83.30
2018-05-11T08:56:02.401Z,83.87
2018-05-11T08:57:55.412Z,84.91
2018-05-11T08:58:55.466Z,85.45
2018-05-11T09:00:48.472Z,84.68
2018-05-11T09:01:48.528Z,84.78
2018-05-11T09:03:41.527Z,85.78
2018-05-11T09:04:41.590Z,85.88
2018-05-11T09:06:34.597Z,86.07
2018-05-11T09:07:34.654Z,85.49
2018-05-11T09:09:27.649Z,85.21
2018-05-11T09:10:27.718Z,85.21
2018-05-11T09:12:20.725Z,86.63
2018-05-11T09:13:20.784Z,81.52
2018-05-11T09:15:13.780Z,68.35
2018-05-11T09:16:13.844Z,67.00
2018-05-11T09:18:06.846Z,69.06
2018-05-11T09:19:06.999Z,66.39
2018-05-11T09:20:59.925Z,66.58
2018-05-11T09:22:00.012Z,71.75
2018-05-11T09:23:52.988Z,77.50
2018-05-11T09:24:53.057Z,80.34
2018-05-11T09:26:46.070Z,83.04
2018-05-11T09:27:46.181Z,84.81
2018-05-11T09:29:39.129Z,83.81
2018-05-11T09:30:39.233Z,83.91
2018-05-11T09:32:32.226Z,85.05
2018-05-11T09:33:32.265Z,84.67
2018-05-11T09:35:25.265Z,85.10
2018-05-11T09:36:25.329Z,85.67
2018-05-11T09:38:18.332Z,83.18
2018-05-11T09:39:18.394Z,83.23
2018-05-11T09:41:11.400Z,82.94
2018-05-11T09:42:11.458Z,82.90
2018-05-11T09:44:04.456Z,85.21
2018-05-11T09:45:04.518Z,84.38
2018-05-11T09:46:57.577Z,83.56
2018-05-11T09:47:57.577Z,82.74
2018-05-11T09:49:50.571Z,81.16
2018-05-11T09:50:50.639Z,82.21
2018-05-11T09:52:43.640Z,82.08
2018-05-11T09:53:43.699Z,83.61
2018-05-11T09:55:36.700Z,83.37
2018-05-11T09:56:36.755Z,81.45
2018-05-11T09:58:29.762Z,82.41
2018-05-11T09:59:29.816Z,79.82
2018-05-11T10:01:22.825Z,82.85
2018-05-11T10:02:22.912Z,83.71
2018-05-11T10:04:15.882Z,83.33
2018-05-11T10:05:15.974Z,81.84
2018-05-11T10:07:09.017Z,80.78
2018-05-11T10:08:09.005Z,80.82
2018-05-11T10:10:02.009Z,76.15
2018-05-11T10:11:02.093Z,71.16
2018-05-11T10:12:55.071Z,71.33
2018-05-11T10:13:55.155Z,70.07
2018-05-11T10:15:48.117Z,70.90
2018-05-11T10:16:48.182Z,71.03
2018-05-11T10:18:41.190Z,72.66
2018-05-11T10:19:41.292Z,77.26
2018-05-11T10:21:34.248Z,72.12
2018-05-11T10:22:34.304Z,72.64
2018-05-11T10:24:27.296Z,73.50
2018-05-11T10:25:27.363Z,71.67
2018-05-11T10:27:20.369Z,72.54
2018-05-11T10:28:20.423Z,69.75
2018-05-11T10:30:13.418Z,71.06
2018-05-11T10:31:13.488Z,73.46
2018-05-11T10:33:06.488Z,75.02
2018-05-11T10:34:06.543Z,77.71
2018-05-11T10:36:00.055Z,75.35
2018-05-11T10:37:00.170Z,76.15
2018-05-11T10:38:53.117Z,70.81
2018-05-11T10:39:53.268Z,70.10
2018-05-11T10:41:46.173Z,70.01
2018-05-11T10:42:46.232Z,70.04
2018-05-11T10:44:39.225Z,73.21
2018-05-11T10:45:39.294Z,71.48
2018-05-11T10:47:32.294Z,68.79
2018-05-11T10:48:32.389Z,68.51
2018-05-11T10:50:25.349Z,66.77
2018-05-11T10:51:25.417Z,68.12
2018-05-11T10:53:18.421Z,67.13
2018-05-11T10:54:18.475Z,69.14
2018-05-11T10:56:11.471Z,68.21
2018-05-11T10:57:11.776Z,66.30
2018-05-11T10:59:04.548Z,67.83
2018-05-11T11:00:04.599Z,67.07
2018-05-11T11:01:57.609Z,69.18
2018-05-11T11:02:57.665Z,69.08
2018-05-11T11:04:50.658Z,68.70
2018-05-11T11:05:50.723Z,69.85
2018-05-11T11:07:43.729Z,69.08
2018-05-11T11:08:43.784Z,69.75
2018-05-11T11:10:36.813Z,67.51
2018-05-11T11:11:36.845Z,69.05
2018-05-11T11:13:29.926Z,69.43
2018-05-11T11:14:29.905Z,71.06
2018-05-11T11:16:22.909Z,69.34
2018-05-11T11:17:22.971Z,68.05
2018-05-11T11:19:15.974Z,69.01
2018-05-11T11:20:16.029Z,73.08
2018-05-11T11:22:09.562Z,70.55
2018-05-11T11:23:09.605Z,72.66
2018-05-11T11:25:02.592Z,71.83
2018-05-11T11:26:02.676Z,68.28
2018-05-11T11:27:55.665Z,70.68
2018-05-11T11:28:55.714Z,71.73
2018-05-11T11:30:49.220Z,74.43
2018-05-11T11:31:49.280Z,73.18
2018-05-11T11:33:42.283Z,72.75
2018-05-11T11:34:42.380Z,72.95
2018-05-11T11:36:35.336Z,72.18
2018-05-11T11:37:35.399Z,75.15
2018-05-11T11:39:28.401Z,75.63
2018-05-11T11:40:28.458Z,72.31
2018-05-11T11:42:21.477Z,73.37
2018-05-11T11:43:21.516Z,75.15
2018-05-11T11:45:14.511Z,75.31
2018-05-11T11:46:14.573Z,79.76
2018-05-11T11:48:07.582Z,78.09
2018-05-11T11:49:07.637Z,78.00
2018-05-11T11:51:00.632Z,79.09
2018-05-11T11:52:00.697Z,74.77
2018-05-11T11:53:53.696Z,74.58
2018-05-11T11:54:53.752Z,74.39
2018-05-11T11:56:46.756Z,74.29
2018-05-11T11:57:46.853Z,77.40
2018-05-11T11:59:39.817Z,72.50
2018-05-11T12:00:39.873Z,70.01
2018-05-11T12:02:32.867Z,70.97
2018-05-11T12:03:32.928Z,72.89
2018-05-11T12:05:25.930Z,72.89
2018-05-11T12:06:25.986Z,74.52
2018-05-11T12:08:18.985Z,71.16
2018-05-11T12:09:19.118Z,70.87
2018-05-11T12:11:12.044Z,68.18
2018-05-11T12:12:12.094Z,69.95
2018-05-11T12:14:05.100Z,67.54
2018-05-11T12:15:05.153Z,69.08
2018-05-11T12:16:58.157Z,70.14
2018-05-11T12:17:58.210Z,69.43
2018-05-11T12:19:51.236Z,70.68
2018-05-11T12:20:51.282Z,71.25
2018-05-11T12:22:44.265Z,70.78
2018-05-11T12:23:44.327Z,72.02
2018-05-11T12:25:37.329Z,71.93
2018-05-11T12:26:37.383Z,74.43
2018-05-11T12:28:30.387Z,75.42
2018-05-11T12:29:30.443Z,76.15
2018-05-11T12:31:23.436Z,74.43
2018-05-11T12:32:23.503Z,74.52
2018-05-11T12:34:16.500Z,77.44
2018-05-11T12:35:16.554Z,77.44
2018-05-11T12:37:09.549Z,76.64
2018-05-11T12:38:09.616Z,77.73
2018-05-11T12:40:02.664Z,73.75
2018-05-11T12:41:02.771Z,72.50
2018-05-11T12:42:55.664Z,72.31
2018-05-11T12:43:55.731Z,74.52
2018-05-11T12:45:48.730Z,74.04
2018-05-11T12:46:48.786Z,73.18
2018-05-11T12:48:41.798Z,74.23
2018-05-11T12:49:41.840Z,73.66
2018-05-11T12:51:34.838Z,78.45
2018-05-11T12:52:34.897Z,77.31
2018-05-11T12:54:27.904Z,76.77
2018-05-11T12:55:27.957Z,75.42
2018-05-11T12:57:21.007Z,74.04
2018-05-11T12:58:21.068Z,76.54
2018-05-11T13:00:14.067Z,73.18
2018-05-11T13:01:14.120Z,73.88
2018-05-11T13:03:07.126Z,74.46
2018-05-11T13:04:07.191Z,74.46
2018-05-11T13:06:00.198Z,76.19
2018-05-11T13:07:00.252Z,72.83
2018-05-11T13:08:53.252Z,75.62
2018-05-11T13:09:53.308Z,73.88
2018-05-11T13:11:46.302Z,75.52
2018-05-11T13:12:46.397Z,73.50
2018-05-11T13:14:39.369Z,69.02
2018-05-11T13:15:39.426Z,69.31
2018-05-11T13:17:32.422Z,69.50
2018-05-11T13:18:32.489Z,69.31
2018-05-11T13:20:25.563Z,68.06
2018-05-11T13:21:25.540Z,67.68
2018-05-11T13:23:18.533Z,65.17
2018-05-11T13:24:18.597Z,65.94
2018-05-11T13:26:11.622Z,66.39
2018-05-11T13:27:11.656Z,68.92
2018-05-11T13:29:04.664Z,65.56
2018-05-11T13:30:04.717Z,65.08
2018-05-11T13:31:57.706Z,66.91
2018-05-11T13:32:57.783Z,64.79
2018-05-11T13:34:50.778Z,65.17
2018-05-11T13:35:50.889Z,66.14
2018-05-11T13:37:43.820Z,66.04
2018-05-11T13:38:43.885Z,65.37
2018-05-11T13:40:36.885Z,68.35
2018-05-11T13:41:36.986Z,67.96
2018-05-11T13:43:29.936Z,61.04
2018-05-11T13:44:29.999Z,60.17
2018-05-11T13:46:23.003Z,63.92
2018-05-11T13:47:23.053Z,67.00
2018-05-11T13:49:16.062Z,60.46
2018-05-11T13:50:16.110Z,57.87
2018-05-11T13:52:09.109Z,59.89
2018-05-11T13:53:09.169Z,60.08
2018-05-11T13:55:02.180Z,64.79
2018-05-11T13:56:02.238Z,65.14
2018-05-11T13:57:55.227Z,69.50
2018-05-11T13:58:55.291Z,67.77
2018-05-11T14:00:48.293Z,64.50
2018-05-11T14:01:48.348Z,62.19
2018-05-11T14:03:41.342Z,62.38
2018-05-11T14:04:41.444Z,62.10
2018-05-11T14:06:34.408Z,62.10
2018-05-11T14:07:34.462Z,62.77
2018-05-11T14:09:27.475Z,63.64
2018-05-11T14:10:27.530Z,64.98
2018-05-11T14:12:21.033Z,61.55
2018-05-11T14:13:21.096Z,63.57
2018-05-11T14:15:14.100Z,58.67
2018-05-11T14:16:14.156Z,56.91
2018-05-11T14:18:07.155Z,58.54
2018-05-11T14:19:07.212Z,59.89
2018-05-11T14:21:00.212Z,61.71
2018-05-11T14:22:00.267Z,62.77
2018-05-11T14:23:53.262Z,60.08
2018-05-11T14:24:53.331Z,59.72
2018-05-11T14:26:46.328Z,56.07
2018-05-11T14:27:46.381Z,57.60
2018-05-11T14:29:39.388Z,57.70
2018-05-11T14:30:39.441Z,56.36
2018-05-11T14:32:32.446Z,57.51
2018-05-11T14:33:32.499Z,56.23
2018-05-11T14:35:25.563Z,55.88
2018-05-11T14:36:25.554Z,57.22
2018-05-11T14:38:18.551Z,57.42
2018-05-11T14:39:18.677Z,56.55
2018-05-11T14:41:11.654Z,55.66
2018-05-11T14:42:11.673Z,58.95
2018-05-11T14:44:04.662Z,58.86
2018-05-11T14:45:04.729Z,57.22
2018-05-11T14:46:57.729Z,55.49
2018-05-11T14:47:57.781Z,55.30
2018-05-11T14:49:50.788Z,54.82
2018-05-11T14:50:50.843Z,55.68
2018-05-11T14:52:43.890Z,54.14
2018-05-11T14:53:43.901Z,55.20
2018-05-11T14:55:36.899Z,56.04
2018-05-11T14:56:36.950Z,56.84
2018-05-11T14:58:29.950Z,57.70
2018-05-11T14:59:30.020Z,57.90
2018-05-11T15:01:23.020Z,55.98
2018-05-11T15:02:23.071Z,55.30
2018-05-11T15:04:16.192Z,54.63
2018-05-11T15:05:16.129Z,54.63
2018-05-11T15:07:09.133Z,55.20
2018-05-11T15:08:09.187Z,54.14
2018-05-11T15:10:02.262Z,54.72
2018-05-11T15:11:02.245Z,54.43
2018-05-11T15:12:55.235Z,55.88
2018-05-11T15:13:55.297Z,56.91
2018-05-11T15:15:48.307Z,57.48
2018-05-11T15:16:48.365Z,56.23
2018-05-11T15:18:41.360Z,55.30
2018-05-11T15:19:41.426Z,54.72
2018-05-11T15:21:34.423Z,54.12
2018-05-11T15:22:34.480Z,53.83
2018-05-11T15:24:27.476Z,54.79
2018-05-11T15:25:27.542Z,54.60
2018-05-11T15:27:20.554Z,55.46
2018-05-11T15:28:20.612Z,53.57
2018-05-11T15:30:13.611Z,52.03
2018-05-11T15:31:13.680Z,51.74
2018-05-11T15:33:06.656Z,52.99
2018-05-11T15:34:06.720Z,53.28
2018-05-11T15:35:59.720Z,51.26
2018-05-11T15:36:59.774Z,51.26
2018-05-11T15:38:52.779Z,53.09
2018-05-11T15:39:52.831Z,52.70
2018-05-11T15:41:45.834Z,51.07
2018-05-11T15:42:45.889Z,51.26
2018-05-11T15:44:38.898Z,50.87
2018-05-11T15:45:38.947Z,51.17
2018-05-11T15:47:31.953Z,51.07
2018-05-11T15:48:32.010Z,51.07
2018-05-11T15:50:25.012Z,51.45
2018-05-11T15:51:25.064Z,51.26
2018-05-11T15:53:18.057Z,50.97
2018-05-11T15:54:18.123Z,51.17
2018-05-11T15:56:11.123Z,52.42
2018-05-11T15:57:11.178Z,51.07
2018-05-11T15:59:04.214Z,49.43
2018-05-11T16:00:04.233Z,48.66
2018-05-11T16:01:57.236Z,47.61
2018-05-11T16:02:57.291Z,47.22
2018-05-11T16:04:50.286Z,48.66
2018-05-11T16:05:50.411Z,49.15
2018-05-11T16:07:43.351Z,47.22
2018-05-11T16:08:43.407Z,46.93
2018-05-11T16:10:36.409Z,46.36
2018-05-11T16:11:36.463Z,46.55
2018-05-11T16:13:29.457Z,46.55
2018-05-11T16:14:29.523Z,47.61
2018-05-11T16:16:22.524Z,47.13
2018-05-11T16:17:22.578Z,47.41
2018-05-11T16:19:15.572Z,48.28
2018-05-11T16:20:15.643Z,48.08
2018-05-11T16:22:08.642Z,49.33
2018-05-11T16:23:08.699Z,49.91
2018-05-11T16:25:01.693Z,49.91
2018-05-11T16:26:01.747Z,49.82
2018-05-11T16:27:54.756Z,50.49
2018-05-11T16:28:54.816Z,50.87
2018-05-11T16:30:47.814Z,51.45
2018-05-11T16:31:47.875Z,51.55
2018-05-11T16:33:40.861Z,51.74
2018-05-11T16:34:40.928Z,50.30
2018-05-11T16:36:33.931Z,49.63
2018-05-11T16:37:33.986Z,50.97
2018-05-11T16:39:27.026Z,50.30
2018-05-11T16:40:27.126Z,49.72
2018-05-11T16:42:20.094Z,50.87
2018-05-11T16:43:20.149Z,48.76
2018-05-11T16:45:13.655Z,48.47
2018-05-11T16:46:13.718Z,48.38
2018-05-11T16:48:06.733Z,51.26
2018-05-11T16:49:06.785Z,51.26
2018-05-11T16:50:59.792Z,50.30
2018-05-11T16:51:59.845Z,49.91
2018-05-11T16:53:52.847Z,49.63
2018-05-11T16:54:52.904Z,50.08
2018-05-11T16:56:45.909Z,49.69
2018-05-11T16:57:45.962Z,49.91
2018-05-11T16:59:38.954Z,51.04
2018-05-11T17:00:39.020Z,51.64
2018-05-11T17:02:32.030Z,51.33
2018-05-11T17:03:32.080Z,51.53
2018-05-11T17:05:25.079Z,50.20
2018-05-11T17:06:25.139Z,50.97
2018-05-11T17:08:18.148Z,50.87
2018-05-11T17:09:18.203Z,50.30
2018-05-11T17:11:11.203Z,50.27
2018-05-11T17:12:11.272Z,50.18
2018-05-11T17:14:04.251Z,50.10
2018-05-11T17:15:04.316Z,50.30
2018-05-11T17:16:57.320Z,51.55
2018-05-11T17:17:57.375Z,51.35
2018-05-11T17:19:50.374Z,51.26
2018-05-11T17:20:50.432Z,50.30
2018-05-11T17:22:43.460Z,50.27
2018-05-11T17:23:43.488Z,49.33
2018-05-11T17:25:36.481Z,49.89
2018-05-11T17:26:36.545Z,49.79
2018-05-11T17:28:29.547Z,50.37
2018-05-11T17:29:29.602Z,49.69
2018-05-11T17:31:22.614Z,49.79
2018-05-11T17:32:22.658Z,50.37
2018-05-11T17:34:15.658Z,50.95
2018-05-11T17:35:15.722Z,51.04
2018-05-11T17:37:08.725Z,51.43
2018-05-11T17:38:08.781Z,51.23
2018-05-11T17:40:01.784Z,52.08
2018-05-11T17:41:01.840Z,51.21
2018-05-11T17:42:54.843Z,52.46
2018-05-11T17:43:54.895Z,52.75
2018-05-11T17:45:47.891Z,50.82
2018-05-11T17:46:47.978Z,50.82
2018-05-11T17:48:40.962Z,51.21
2018-05-11T17:49:41.009Z,51.40
2018-05-11T17:51:34.020Z,51.21
2018-05-11T17:52:34.067Z,51.79
2018-05-11T17:54:27.060Z,51.88
2018-05-11T17:55:27.125Z,51.59
2018-05-11T17:57:20.134Z,50.92
2018-05-11T17:58:20.183Z,52.36
2018-05-11T18:00:13.236Z,52.34
2018-05-11T18:01:13.240Z,52.72
2018-05-11T18:03:06.293Z,53.01
2018-05-11T18:04:06.295Z,52.81
2018-05-11T18:05:59.286Z,53.20
2018-05-11T18:06:59.353Z,53.49
2018-05-11T18:08:52.357Z,54.06
2018-05-11T18:09:52.410Z,53.78
2018-05-11T18:11:45.411Z,53.97
2018-05-11T18:12:45.476Z,54.45
2018-05-11T18:14:38.976Z,54.25
2018-05-11T18:15:39.030Z,55.32
2018-05-11T18:17:32.031Z,55.41
2018-05-11T18:18:32.088Z,55.67
2018-05-11T18:20:25.087Z,55.10
2018-05-11T18:21:25.149Z,55.29
2018-05-11T18:23:18.144Z,55.38
2018-05-11T18:24:18.204Z,55.47
2018-05-11T18:26:11.197Z,55.38
2018-05-11T18:27:11.260Z,55.77
2018-05-11T18:29:04.270Z,57.21
2018-05-11T18:30:04.327Z,56.15
2018-05-11T18:31:57.318Z,56.53
2018-05-11T18:32:57.385Z,55.86
2018-05-11T18:34:50.389Z,56.53